sensor_id;sensor_type;location;lat;lon;timestamp;P1;durP1;ratioP1;P2;durP2;ratioP2
53044;SDS011;38930;52.766;6.884;2023-02-15T00:01:43;66.20;;;29.27;;
53044;SDS011;38930;52.766;6.884;2023-02-15T00:04:09;54.70;;;26.65;;
53044;SDS011;38930;52.766;6.884;2023-02-15T00:06:37;56.55;;;28.50;;
53044;SDS011;38930;52.766;6.884;2023-02-15T00:09:03;58.38;;;28.23;;
53044;SDS011;38930;52.766;6.884;2023-02-15T00:11:29;52.83;;;27.45;;
53044;SDS011;38930;52.766;6.884;2023-02-15T00:16:45;53.83;;;27.35;;
53044;SDS011;38930;52.766;6.884;2023-02-15T00:21:39;59.45;;;27.77;;
53044;SDS011;38930;52.766;6.884;2023-02-15T00:24:06;53.80;;;28.13;;
53044;SDS011;38930;52.766;6.884;2023-02-15T00:26:33;51.35;;;26.70;;
53044;SDS011;38930;52.766;6.884;2023-02-15T00:28:59;58.70;;;27.87;;
53044;SDS011;38930;52.766;6.884;2023-02-15T00:31:27;56.67;;;28.25;;
53044;SDS011;38930;52.766;6.884;2023-02-15T00:33:55;55.72;;;28.88;;
53044;SDS011;38930;52.766;6.884;2023-02-15T00:36:26;55.08;;;28.55;;
53044;SDS011;38930;52.766;6.884;2023-02-15T00:38:51;55.13;;;27.92;;
53044;SDS011;38930;52.766;6.884;2023-02-15T00:41:17;60.72;;;28.90;;
53044;SDS011;38930;52.766;6.884;2023-02-15T00:43:43;56.65;;;28.42;;
53044;SDS011;38930;52.766;6.884;2023-02-15T00:46:08;51.88;;;26.63;;
53044;SDS011;38930;52.766;6.884;2023-02-15T00:48:34;48.20;;;24.95;;
53044;SDS011;38930;52.766;6.884;2023-02-15T00:51:00;46.55;;;26.40;;
53044;SDS011;38930;52.766;6.884;2023-02-15T00:53:26;47.72;;;26.63;;
53044;SDS011;38930;52.766;6.884;2023-02-15T00:58:19;52.85;;;27.08;;
53044;SDS011;38930;52.766;6.884;2023-02-15T01:00:45;58.40;;;27.48;;
53044;SDS011;38930;52.766;6.884;2023-02-15T01:05:38;49.45;;;27.30;;
53044;SDS011;38930;52.766;6.884;2023-02-15T01:08:03;47.38;;;25.70;;
53044;SDS011;38930;52.766;6.884;2023-02-15T01:10:29;49.45;;;26.42;;
53044;SDS011;38930;52.766;6.884;2023-02-15T01:12:55;49.45;;;25.92;;
53044;SDS011;38930;52.766;6.884;2023-02-15T01:15:21;52.50;;;28.08;;
53044;SDS011;38930;52.766;6.884;2023-02-15T01:17:47;48.65;;;27.45;;
53044;SDS011;38930;52.766;6.884;2023-02-15T01:20:25;51.33;;;26.42;;
53044;SDS011;38930;52.766;6.884;2023-02-15T01:22:53;52.03;;;26.13;;
53044;SDS011;38930;52.766;6.884;2023-02-15T01:25:19;52.72;;;27.75;;
53044;SDS011;38930;52.766;6.884;2023-02-15T01:27:46;52.10;;;27.35;;
53044;SDS011;38930;52.766;6.884;2023-02-15T01:30:13;53.67;;;26.17;;
53044;SDS011;38930;52.766;6.884;2023-02-15T01:32:39;56.88;;;28.73;;
53044;SDS011;38930;52.766;6.884;2023-02-15T01:35:05;49.13;;;27.55;;
53044;SDS011;38930;52.766;6.884;2023-02-15T01:37:31;49.40;;;26.10;;
53044;SDS011;38930;52.766;6.884;2023-02-15T01:39:58;56.10;;;27.65;;
53044;SDS011;38930;52.766;6.884;2023-02-15T01:42:25;44.25;;;25.02;;
53044;SDS011;38930;52.766;6.884;2023-02-15T01:44:53;45.78;;;24.88;;
53044;SDS011;38930;52.766;6.884;2023-02-15T01:47:35;49.53;;;26.63;;
53044;SDS011;38930;52.766;6.884;2023-02-15T01:52:41;49.55;;;27.75;;
53044;SDS011;38930;52.766;6.884;2023-02-15T01:55:29;53.92;;;27.30;;
53044;SDS011;38930;52.766;6.884;2023-02-15T01:57:59;56.55;;;27.92;;
53044;SDS011;38930;52.766;6.884;2023-02-15T02:00:25;53.75;;;26.00;;
53044;SDS011;38930;52.766;6.884;2023-02-15T02:02:52;50.42;;;26.33;;
53044;SDS011;38930;52.766;6.884;2023-02-15T02:05:20;45.72;;;24.85;;
53044;SDS011;38930;52.766;6.884;2023-02-15T02:07:46;51.87;;;26.67;;
53044;SDS011;38930;52.766;6.884;2023-02-15T02:10:15;45.55;;;25.00;;
53044;SDS011;38930;52.766;6.884;2023-02-15T02:12:42;50.60;;;25.52;;
53044;SDS011;38930;52.766;6.884;2023-02-15T02:15:10;53.55;;;25.60;;
53044;SDS011;38930;52.766;6.884;2023-02-15T02:17:43;48.55;;;26.52;;
53044;SDS011;38930;52.766;6.884;2023-02-15T02:20:25;54.75;;;26.17;;
53044;SDS011;38930;52.766;6.884;2023-02-15T02:23:21;52.08;;;25.80;;
53044;SDS011;38930;52.766;6.884;2023-02-15T02:33:54;47.85;;;25.38;;
53044;SDS011;38930;52.766;6.884;2023-02-15T02:44:42;47.38;;;24.52;;
53044;SDS011;38930;52.766;6.884;2023-02-15T02:47:13;47.03;;;25.05;;
53044;SDS011;38930;52.766;6.884;2023-02-15T02:49:51;44.47;;;23.48;;
53044;SDS011;38930;52.766;6.884;2023-02-15T02:55:18;48.72;;;24.67;;
53044;SDS011;38930;52.766;6.884;2023-02-15T03:01:33;45.33;;;25.05;;
53044;SDS011;38930;52.766;6.884;2023-02-15T03:04:08;44.95;;;24.10;;
53044;SDS011;38930;52.766;6.884;2023-02-15T03:06:40;45.20;;;24.40;;
53044;SDS011;38930;52.766;6.884;2023-02-15T03:09:17;44.10;;;23.88;;
53044;SDS011;38930;52.766;6.884;2023-02-15T03:12:06;48.45;;;24.77;;
53044;SDS011;38930;52.766;6.884;2023-02-15T03:14:33;43.90;;;24.40;;
53044;SDS011;38930;52.766;6.884;2023-02-15T03:17:00;46.92;;;24.42;;
53044;SDS011;38930;52.766;6.884;2023-02-15T03:22:00;37.50;;;22.13;;
53044;SDS011;38930;52.766;6.884;2023-02-15T03:24:41;44.15;;;23.50;;
53044;SDS011;38930;52.766;6.884;2023-02-15T03:27:19;41.28;;;23.98;;
53044;SDS011;38930;52.766;6.884;2023-02-15T03:29:51;45.20;;;24.38;;
53044;SDS011;38930;52.766;6.884;2023-02-15T03:32:20;42.40;;;23.25;;
53044;SDS011;38930;52.766;6.884;2023-02-15T03:34:48;39.70;;;23.08;;
53044;SDS011;38930;52.766;6.884;2023-02-15T03:40:03;42.67;;;23.30;;
53044;SDS011;38930;52.766;6.884;2023-02-15T03:42:49;42.97;;;23.42;;
53044;SDS011;38930;52.766;6.884;2023-02-15T03:45:23;44.72;;;24.48;;
53044;SDS011;38930;52.766;6.884;2023-02-15T03:47:52;36.40;;;20.90;;
53044;SDS011;38930;52.766;6.884;2023-02-15T03:50:20;40.40;;;22.10;;
53044;SDS011;38930;52.766;6.884;2023-02-15T03:53:10;40.30;;;22.67;;
53044;SDS011;38930;52.766;6.884;2023-02-15T03:55:39;41.88;;;23.15;;
53044;SDS011;38930;52.766;6.884;2023-02-15T03:58:04;37.72;;;21.15;;
53044;SDS011;38930;52.766;6.884;2023-02-15T04:00:50;39.17;;;22.77;;
53044;SDS011;38930;52.766;6.884;2023-02-15T04:03:45;37.67;;;21.60;;
53044;SDS011;38930;52.766;6.884;2023-02-15T04:06:33;38.30;;;21.85;;
53044;SDS011;38930;52.766;6.884;2023-02-15T04:08:59;41.35;;;22.10;;
53044;SDS011;38930;52.766;6.884;2023-02-15T04:11:43;37.60;;;21.35;;
53044;SDS011;38930;52.766;6.884;2023-02-15T04:14:08;38.60;;;22.40;;
53044;SDS011;38930;52.766;6.884;2023-02-15T04:16:52;35.90;;;21.50;;
53044;SDS011;38930;52.766;6.884;2023-02-15T04:19:18;28.63;;;18.63;;
53044;SDS011;38930;52.766;6.884;2023-02-15T04:22:02;31.88;;;18.98;;
53044;SDS011;38930;52.766;6.884;2023-02-15T04:24:46;30.20;;;19.27;;
53044;SDS011;38930;52.766;6.884;2023-02-15T04:27:30;33.08;;;19.40;;
53044;SDS011;38930;52.766;6.884;2023-02-15T04:29:56;31.38;;;18.50;;
53044;SDS011;38930;52.766;6.884;2023-02-15T04:32:21;35.78;;;19.02;;
53044;SDS011;38930;52.766;6.884;2023-02-15T04:34:47;31.48;;;19.42;;
53044;SDS011;38930;52.766;6.884;2023-02-15T04:37:12;30.25;;;18.98;;
53044;SDS011;38930;52.766;6.884;2023-02-15T04:39:38;31.52;;;18.90;;
53044;SDS011;38930;52.766;6.884;2023-02-15T04:42:03;29.77;;;17.77;;
53044;SDS011;38930;52.766;6.884;2023-02-15T04:44:29;30.60;;;18.48;;
53044;SDS011;38930;52.766;6.884;2023-02-15T04:46:55;30.88;;;18.77;;
53044;SDS011;38930;52.766;6.884;2023-02-15T04:49:20;28.83;;;17.50;;
53044;SDS011;38930;52.766;6.884;2023-02-15T04:51:46;32.42;;;18.65;;
53044;SDS011;38930;52.766;6.884;2023-02-15T04:54:11;27.33;;;17.33;;
53044;SDS011;38930;52.766;6.884;2023-02-15T04:56:37;30.95;;;17.95;;
53044;SDS011;38930;52.766;6.884;2023-02-15T04:59:04;29.08;;;17.58;;
53044;SDS011;38930;52.766;6.884;2023-02-15T05:01:29;29.08;;;17.80;;
53044;SDS011;38930;52.766;6.884;2023-02-15T05:03:55;28.17;;;17.23;;
53044;SDS011;38930;52.766;6.884;2023-02-15T05:06:21;26.90;;;18.08;;
53044;SDS011;38930;52.766;6.884;2023-02-15T05:08:47;33.00;;;19.52;;
53044;SDS011;38930;52.766;6.884;2023-02-15T05:11:12;30.88;;;18.23;;
53044;SDS011;38930;52.766;6.884;2023-02-15T05:13:38;32.35;;;17.70;;
53044;SDS011;38930;52.766;6.884;2023-02-15T05:16:03;28.10;;;17.65;;
53044;SDS011;38930;52.766;6.884;2023-02-15T05:18:29;26.92;;;17.02;;
53044;SDS011;38930;52.766;6.884;2023-02-15T05:20:55;26.35;;;17.17;;
53044;SDS011;38930;52.766;6.884;2023-02-15T05:23:20;31.02;;;18.55;;
53044;SDS011;38930;52.766;6.884;2023-02-15T05:25:49;31.05;;;17.85;;
53044;SDS011;38930;52.766;6.884;2023-02-15T05:28:35;30.10;;;18.77;;
53044;SDS011;38930;52.766;6.884;2023-02-15T05:33:37;31.77;;;19.60;;
53044;SDS011;38930;52.766;6.884;2023-02-15T05:36:04;35.33;;;20.13;;
53044;SDS011;38930;52.766;6.884;2023-02-15T05:38:30;33.80;;;18.55;;
53044;SDS011;38930;52.766;6.884;2023-02-15T05:40:56;32.72;;;18.95;;
53044;SDS011;38930;52.766;6.884;2023-02-15T05:43:22;28.50;;;18.52;;
53044;SDS011;38930;52.766;6.884;2023-02-15T05:45:48;34.00;;;18.90;;
53044;SDS011;38930;52.766;6.884;2023-02-15T05:48:16;30.02;;;18.25;;
53044;SDS011;38930;52.766;6.884;2023-02-15T05:50:42;32.45;;;18.55;;
53044;SDS011;38930;52.766;6.884;2023-02-15T05:53:09;30.38;;;17.80;;
53044;SDS011;38930;52.766;6.884;2023-02-15T05:55:38;35.13;;;18.48;;
53044;SDS011;38930;52.766;6.884;2023-02-15T05:58:05;34.70;;;18.50;;
53044;SDS011;38930;52.766;6.884;2023-02-15T06:00:31;30.80;;;17.35;;
53044;SDS011;38930;52.766;6.884;2023-02-15T06:02:57;31.43;;;18.60;;
53044;SDS011;38930;52.766;6.884;2023-02-15T06:05:22;30.60;;;18.05;;
53044;SDS011;38930;52.766;6.884;2023-02-15T06:07:48;32.42;;;18.40;;
53044;SDS011;38930;52.766;6.884;2023-02-15T06:10:14;31.20;;;17.40;;
53044;SDS011;38930;52.766;6.884;2023-02-15T06:12:40;33.10;;;19.45;;
53044;SDS011;38930;52.766;6.884;2023-02-15T06:15:05;34.67;;;19.23;;
53044;SDS011;38930;52.766;6.884;2023-02-15T06:17:31;37.03;;;20.15;;
53044;SDS011;38930;52.766;6.884;2023-02-15T06:19:58;31.65;;;18.20;;
53044;SDS011;38930;52.766;6.884;2023-02-15T06:22:23;34.13;;;19.58;;
53044;SDS011;38930;52.766;6.884;2023-02-15T06:24:49;36.80;;;20.15;;
53044;SDS011;38930;52.766;6.884;2023-02-15T06:27:14;37.45;;;19.92;;
53044;SDS011;38930;52.766;6.884;2023-02-15T06:29:40;38.83;;;21.73;;
53044;SDS011;38930;52.766;6.884;2023-02-15T06:32:05;34.63;;;20.20;;
53044;SDS011;38930;52.766;6.884;2023-02-15T06:34:31;36.67;;;19.55;;
53044;SDS011;38930;52.766;6.884;2023-02-15T06:36:57;37.65;;;20.55;;
53044;SDS011;38930;52.766;6.884;2023-02-15T06:39:23;33.90;;;19.23;;
53044;SDS011;38930;52.766;6.884;2023-02-15T06:41:48;33.05;;;18.55;;
53044;SDS011;38930;52.766;6.884;2023-02-15T06:44:14;36.42;;;19.55;;
53044;SDS011;38930;52.766;6.884;2023-02-15T06:46:39;35.75;;;18.92;;
53044;SDS011;38930;52.766;6.884;2023-02-15T06:49:05;30.77;;;18.27;;
53044;SDS011;38930;52.766;6.884;2023-02-15T06:51:31;33.45;;;19.88;;
53044;SDS011;38930;52.766;6.884;2023-02-15T06:53:56;33.03;;;19.17;;
53044;SDS011;38930;52.766;6.884;2023-02-15T06:56:22;34.70;;;20.02;;
53044;SDS011;38930;52.766;6.884;2023-02-15T06:58:47;36.75;;;20.27;;
53044;SDS011;38930;52.766;6.884;2023-02-15T07:01:14;43.95;;;21.40;;
53044;SDS011;38930;52.766;6.884;2023-02-15T07:03:40;42.35;;;20.58;;
53044;SDS011;38930;52.766;6.884;2023-02-15T07:06:06;36.47;;;20.02;;
53044;SDS011;38930;52.766;6.884;2023-02-15T07:08:33;36.03;;;19.90;;
53044;SDS011;38930;52.766;6.884;2023-02-15T07:11:03;40.95;;;20.70;;
53044;SDS011;38930;52.766;6.884;2023-02-15T07:13:47;36.55;;;20.70;;
53044;SDS011;38930;52.766;6.884;2023-02-15T07:16:13;41.28;;;21.25;;
53044;SDS011;38930;52.766;6.884;2023-02-15T07:18:39;44.30;;;22.08;;
53044;SDS011;38930;52.766;6.884;2023-02-15T07:21:05;40.30;;;21.37;;
53044;SDS011;38930;52.766;6.884;2023-02-15T07:23:38;49.38;;;23.10;;
53044;SDS011;38930;52.766;6.884;2023-02-15T07:26:04;43.05;;;22.98;;
53044;SDS011;38930;52.766;6.884;2023-02-15T07:28:32;42.90;;;23.13;;
53044;SDS011;38930;52.766;6.884;2023-02-15T07:30:58;45.90;;;23.55;;
53044;SDS011;38930;52.766;6.884;2023-02-15T07:33:27;45.60;;;23.70;;
53044;SDS011;38930;52.766;6.884;2023-02-15T07:35:54;49.60;;;22.92;;
53044;SDS011;38930;52.766;6.884;2023-02-15T07:38:23;48.47;;;23.48;;
53044;SDS011;38930;52.766;6.884;2023-02-15T07:40:50;51.08;;;23.92;;
53044;SDS011;38930;52.766;6.884;2023-02-15T07:43:16;49.05;;;24.40;;
53044;SDS011;38930;52.766;6.884;2023-02-15T07:45:41;51.90;;;25.10;;
53044;SDS011;38930;52.766;6.884;2023-02-15T07:48:07;43.83;;;23.95;;
53044;SDS011;38930;52.766;6.884;2023-02-15T07:50:33;49.08;;;24.95;;
53044;SDS011;38930;52.766;6.884;2023-02-15T07:53:00;55.60;;;26.55;;
53044;SDS011;38930;52.766;6.884;2023-02-15T07:55:27;53.50;;;26.33;;
53044;SDS011;38930;52.766;6.884;2023-02-15T07:57:53;52.80;;;27.80;;
53044;SDS011;38930;52.766;6.884;2023-02-15T08:00:19;53.03;;;25.38;;
53044;SDS011;38930;52.766;6.884;2023-02-15T08:02:53;58.78;;;28.10;;
53044;SDS011;38930;52.766;6.884;2023-02-15T08:05:41;60.08;;;29.02;;
53044;SDS011;38930;52.766;6.884;2023-02-15T08:08:10;60.50;;;28.92;;
53044;SDS011;38930;52.766;6.884;2023-02-15T08:11:37;60.28;;;27.88;;
53044;SDS011;38930;52.766;6.884;2023-02-15T08:16:35;63.08;;;28.30;;
53044;SDS011;38930;52.766;6.884;2023-02-15T08:21:48;66.85;;;30.13;;
53044;SDS011;38930;52.766;6.884;2023-02-15T08:24:17;63.22;;;29.88;;
53044;SDS011;38930;52.766;6.884;2023-02-15T08:26:44;62.00;;;29.27;;
53044;SDS011;38930;52.766;6.884;2023-02-15T08:29:11;65.28;;;30.52;;
53044;SDS011;38930;52.766;6.884;2023-02-15T08:31:38;69.38;;;30.73;;
53044;SDS011;38930;52.766;6.884;2023-02-15T08:34:05;73.35;;;31.95;;
53044;SDS011;38930;52.766;6.884;2023-02-15T08:36:32;66.57;;;31.45;;
53044;SDS011;38930;52.766;6.884;2023-02-15T08:38:58;76.20;;;31.75;;
53044;SDS011;38930;52.766;6.884;2023-02-15T08:41:26;65.57;;;33.75;;
53044;SDS011;38930;52.766;6.884;2023-02-15T08:43:57;74.20;;;32.70;;
53044;SDS011;38930;52.766;6.884;2023-02-15T08:46:25;68.93;;;33.65;;
53044;SDS011;38930;52.766;6.884;2023-02-15T08:48:52;70.10;;;32.30;;
53044;SDS011;38930;52.766;6.884;2023-02-15T08:51:19;74.85;;;33.50;;
53044;SDS011;38930;52.766;6.884;2023-02-15T08:53:47;62.92;;;30.60;;
53044;SDS011;38930;52.766;6.884;2023-02-15T08:56:14;66.95;;;31.63;;
53044;SDS011;38930;52.766;6.884;2023-02-15T08:58:41;69.13;;;32.10;;
53044;SDS011;38930;52.766;6.884;2023-02-15T09:03:37;63.17;;;31.05;;
53044;SDS011;38930;52.766;6.884;2023-02-15T09:06:03;52.42;;;28.35;;
53044;SDS011;38930;52.766;6.884;2023-02-15T09:08:30;59.42;;;28.92;;
53044;SDS011;38930;52.766;6.884;2023-02-15T09:11:56;56.75;;;28.27;;
53044;SDS011;38930;52.766;6.884;2023-02-15T09:13:56;54.10;;;28.65;;
53044;SDS011;38930;52.766;6.884;2023-02-15T09:16:28;57.10;;;28.27;;
53044;SDS011;38930;52.766;6.884;2023-02-15T09:18:56;52.13;;;27.42;;
53044;SDS011;38930;52.766;6.884;2023-02-15T09:21:31;56.47;;;27.35;;
53044;SDS011;38930;52.766;6.884;2023-02-15T09:23:59;52.70;;;27.25;;
53044;SDS011;38930;52.766;6.884;2023-02-15T09:26:28;48.90;;;25.45;;
53044;SDS011;38930;52.766;6.884;2023-02-15T09:28:56;51.33;;;27.17;;
53044;SDS011;38930;52.766;6.884;2023-02-15T09:31:24;50.15;;;24.92;;
53044;SDS011;38930;52.766;6.884;2023-02-15T09:33:52;49.72;;;25.35;;
53044;SDS011;38930;52.766;6.884;2023-02-15T09:38:46;45.20;;;24.70;;
53044;SDS011;38930;52.766;6.884;2023-02-15T09:41:23;48.97;;;25.35;;
53044;SDS011;38930;52.766;6.884;2023-02-15T09:46:57;45.10;;;26.17;;
53044;SDS011;38930;52.766;6.884;2023-02-15T09:49:37;46.28;;;24.88;;
53044;SDS011;38930;52.766;6.884;2023-02-15T10:00:24;49.05;;;24.95;;
53044;SDS011;38930;52.766;6.884;2023-02-15T10:16:45;43.45;;;24.35;;
53044;SDS011;38930;52.766;6.884;2023-02-15T10:19:31;48.10;;;24.88;;
53044;SDS011;38930;52.766;6.884;2023-02-15T10:27:47;43.33;;;24.15;;
53044;SDS011;38930;52.766;6.884;2023-02-15T10:30:28;43.20;;;24.27;;
53044;SDS011;38930;52.766;6.884;2023-02-15T10:33:05;44.55;;;25.02;;
53044;SDS011;38930;52.766;6.884;2023-02-15T10:36:01;44.10;;;24.05;;
53044;SDS011;38930;52.766;6.884;2023-02-15T10:39:07;41.88;;;24.17;;
53044;SDS011;38930;52.766;6.884;2023-02-15T10:41:51;46.70;;;23.80;;
53044;SDS011;38930;52.766;6.884;2023-02-15T10:44:36;46.22;;;23.85;;
53044;SDS011;38930;52.766;6.884;2023-02-15T10:47:27;44.63;;;24.38;;
53044;SDS011;38930;52.766;6.884;2023-02-15T10:55:45;42.58;;;23.48;;
53044;SDS011;38930;52.766;6.884;2023-02-15T11:04:15;45.33;;;25.05;;
53044;SDS011;38930;52.766;6.884;2023-02-15T11:06:59;45.03;;;24.27;;
53044;SDS011;38930;52.766;6.884;2023-02-15T11:09:33;42.53;;;24.65;;
53044;SDS011;38930;52.766;6.884;2023-02-15T11:12:03;45.50;;;25.00;;
53044;SDS011;38930;52.766;6.884;2023-02-15T11:14:49;46.40;;;24.30;;
53044;SDS011;38930;52.766;6.884;2023-02-15T11:17:21;41.95;;;23.67;;
53044;SDS011;38930;52.766;6.884;2023-02-15T11:20:02;43.00;;;24.00;;
53044;SDS011;38930;52.766;6.884;2023-02-15T11:22:50;43.40;;;22.33;;
53044;SDS011;38930;52.766;6.884;2023-02-15T11:25:23;48.83;;;24.75;;
53044;SDS011;38930;52.766;6.884;2023-02-15T11:27:53;43.72;;;23.23;;
53044;SDS011;38930;52.766;6.884;2023-02-15T11:30:20;44.22;;;23.75;;
53044;SDS011;38930;52.766;6.884;2023-02-15T11:32:49;42.45;;;23.75;;
53044;SDS011;38930;52.766;6.884;2023-02-15T11:37:54;44.50;;;23.73;;
53044;SDS011;38930;52.766;6.884;2023-02-15T11:40:44;39.22;;;21.85;;
53044;SDS011;38930;52.766;6.884;2023-02-15T11:43:16;40.55;;;23.15;;
53044;SDS011;38930;52.766;6.884;2023-02-15T11:45:45;48.35;;;23.80;;
53044;SDS011;38930;52.766;6.884;2023-02-15T11:48:12;38.65;;;22.23;;
53044;SDS011;38930;52.766;6.884;2023-02-15T11:50:40;38.75;;;22.63;;
53044;SDS011;38930;52.766;6.884;2023-02-15T11:53:14;37.42;;;22.45;;
53044;SDS011;38930;52.766;6.884;2023-02-15T11:55:43;45.30;;;23.42;;
53044;SDS011;38930;52.766;6.884;2023-02-15T11:58:21;43.85;;;24.00;;
53044;SDS011;38930;52.766;6.884;2023-02-15T12:00:54;41.25;;;24.05;;
53044;SDS011;38930;52.766;6.884;2023-02-15T12:06:26;41.90;;;23.73;;
53044;SDS011;38930;52.766;6.884;2023-02-15T12:11:45;43.72;;;23.88;;
53044;SDS011;38930;52.766;6.884;2023-02-15T12:14:12;41.38;;;22.10;;
53044;SDS011;38930;52.766;6.884;2023-02-15T12:16:45;42.22;;;23.30;;
53044;SDS011;38930;52.766;6.884;2023-02-15T12:22:26;43.33;;;23.15;;
53044;SDS011;38930;52.766;6.884;2023-02-15T12:24:55;39.47;;;21.17;;
53044;SDS011;38930;52.766;6.884;2023-02-15T12:27:25;40.22;;;22.35;;
53044;SDS011;38930;52.766;6.884;2023-02-15T12:29:54;38.92;;;21.02;;
53044;SDS011;38930;52.766;6.884;2023-02-15T12:32:31;39.80;;;20.95;;
53044;SDS011;38930;52.766;6.884;2023-02-15T12:35:01;40.95;;;21.70;;
53044;SDS011;38930;52.766;6.884;2023-02-15T12:37:40;35.72;;;20.65;;
53044;SDS011;38930;52.766;6.884;2023-02-15T12:40:21;40.65;;;20.67;;
53044;SDS011;38930;52.766;6.884;2023-02-15T12:42:52;38.05;;;20.92;;
53044;SDS011;38930;52.766;6.884;2023-02-15T12:48:35;38.65;;;20.95;;
53044;SDS011;38930;52.766;6.884;2023-02-15T12:50:44;41.95;;;21.13;;
53044;SDS011;38930;52.766;6.884;2023-02-15T12:53:15;39.90;;;19.88;;
53044;SDS011;38930;52.766;6.884;2023-02-15T12:55:58;36.75;;;20.20;;
53044;SDS011;38930;52.766;6.884;2023-02-15T12:58:29;37.47;;;20.60;;
53044;SDS011;38930;52.766;6.884;2023-02-15T13:03:52;38.05;;;19.67;;
53044;SDS011;38930;52.766;6.884;2023-02-15T13:06:21;35.90;;;19.15;;
53044;SDS011;38930;52.766;6.884;2023-02-15T13:08:51;40.65;;;19.45;;
53044;SDS011;38930;52.766;6.884;2023-02-15T13:11:25;37.08;;;19.13;;
53044;SDS011;38930;52.766;6.884;2023-02-15T13:14:02;33.80;;;18.43;;
53044;SDS011;38930;52.766;6.884;2023-02-15T13:16:40;37.85;;;19.33;;
53044;SDS011;38930;52.766;6.884;2023-02-15T13:19:12;37.30;;;19.90;;
53044;SDS011;38930;52.766;6.884;2023-02-15T13:21:56;32.55;;;18.80;;
53044;SDS011;38930;52.766;6.884;2023-02-15T13:24:27;37.25;;;19.33;;
53044;SDS011;38930;52.766;6.884;2023-02-15T13:26:58;34.03;;;18.50;;
53044;SDS011;38930;52.766;6.884;2023-02-15T13:29:28;35.03;;;19.08;;
53044;SDS011;38930;52.766;6.884;2023-02-15T13:32:00;35.80;;;18.17;;
53044;SDS011;38930;52.766;6.884;2023-02-15T13:34:37;34.75;;;18.10;;
53044;SDS011;38930;52.766;6.884;2023-02-15T13:39:46;30.10;;;17.13;;
53044;SDS011;38930;52.766;6.884;2023-02-15T13:42:41;32.67;;;18.10;;
53044;SDS011;38930;52.766;6.884;2023-02-15T13:45:28;37.03;;;18.88;;
53044;SDS011;38930;52.766;6.884;2023-02-15T13:56:34;32.90;;;18.33;;
53044;SDS011;38930;52.766;6.884;2023-02-15T14:04:25;33.85;;;18.58;;
53044;SDS011;38930;52.766;6.884;2023-02-15T14:07:34;36.83;;;17.58;;
53044;SDS011;38930;52.766;6.884;2023-02-15T14:18:59;33.60;;;19.10;;
53044;SDS011;38930;52.766;6.884;2023-02-15T14:22:00;35.50;;;17.63;;
53044;SDS011;38930;52.766;6.884;2023-02-15T14:24:41;33.10;;;17.92;;
53044;SDS011;38930;52.766;6.884;2023-02-15T14:29:47;31.80;;;17.55;;
53044;SDS011;38930;52.766;6.884;2023-02-15T14:32:36;31.85;;;16.85;;
53044;SDS011;38930;52.766;6.884;2023-02-15T14:35:13;33.17;;;16.60;;
53044;SDS011;38930;52.766;6.884;2023-02-15T14:37:50;32.50;;;17.48;;
53044;SDS011;38930;52.766;6.884;2023-02-15T14:40:28;32.30;;;17.75;;
53044;SDS011;38930;52.766;6.884;2023-02-15T14:43:31;36.05;;;17.88;;
53044;SDS011;38930;52.766;6.884;2023-02-15T14:49:04;37.17;;;18.77;;
53044;SDS011;38930;52.766;6.884;2023-02-15T14:54:56;39.47;;;17.55;;
53044;SDS011;38930;52.766;6.884;2023-02-15T15:07:47;32.28;;;17.13;;
53044;SDS011;38930;52.766;6.884;2023-02-15T15:20:50;36.03;;;17.10;;
53044;SDS011;38930;52.766;6.884;2023-02-15T15:31:17;36.83;;;18.23;;
53044;SDS011;38930;52.766;6.884;2023-02-15T15:37:10;31.27;;;17.02;;
53044;SDS011;38930;52.766;6.884;2023-02-15T15:45:43;32.20;;;17.05;;
53044;SDS011;38930;52.766;6.884;2023-02-15T15:48:30;32.53;;;16.88;;
53044;SDS011;38930;52.766;6.884;2023-02-15T15:53:54;31.75;;;16.45;;
53044;SDS011;38930;52.766;6.884;2023-02-15T15:56:24;33.67;;;17.15;;
53044;SDS011;38930;52.766;6.884;2023-02-15T15:58:59;36.17;;;17.40;;
53044;SDS011;38930;52.766;6.884;2023-02-15T16:01:28;32.85;;;16.88;;
53044;SDS011;38930;52.766;6.884;2023-02-15T16:03:59;32.50;;;16.95;;
53044;SDS011;38930;52.766;6.884;2023-02-15T16:06:29;36.17;;;17.35;;
53044;SDS011;38930;52.766;6.884;2023-02-15T16:08:57;33.15;;;17.42;;
53044;SDS011;38930;52.766;6.884;2023-02-15T16:11:33;34.03;;;17.27;;
53044;SDS011;38930;52.766;6.884;2023-02-15T16:14:00;36.20;;;17.88;;
53044;SDS011;38930;52.766;6.884;2023-02-15T16:16:26;36.05;;;17.33;;
53044;SDS011;38930;52.766;6.884;2023-02-15T16:18:54;33.92;;;17.17;;
53044;SDS011;38930;52.766;6.884;2023-02-15T16:21:29;34.15;;;17.33;;
53044;SDS011;38930;52.766;6.884;2023-02-15T16:27:13;34.47;;;17.77;;
53044;SDS011;38930;52.766;6.884;2023-02-15T16:29:44;33.53;;;17.75;;
53044;SDS011;38930;52.766;6.884;2023-02-15T16:37:19;34.22;;;18.40;;
53044;SDS011;38930;52.766;6.884;2023-02-15T16:39:51;39.88;;;19.13;;
53044;SDS011;38930;52.766;6.884;2023-02-15T16:42:18;36.40;;;18.13;;
53044;SDS011;38930;52.766;6.884;2023-02-15T16:44:49;32.20;;;17.77;;
53044;SDS011;38930;52.766;6.884;2023-02-15T16:47:21;35.20;;;19.33;;
53044;SDS011;38930;52.766;6.884;2023-02-15T16:49:50;38.13;;;18.60;;
53044;SDS011;38930;52.766;6.884;2023-02-15T16:52:19;33.65;;;18.17;;
53044;SDS011;38930;52.766;6.884;2023-02-15T16:54:49;35.78;;;18.55;;
53044;SDS011;38930;52.766;6.884;2023-02-15T16:57:36;37.70;;;18.13;;
53044;SDS011;38930;52.766;6.884;2023-02-15T17:00:07;35.45;;;18.17;;
53044;SDS011;38930;52.766;6.884;2023-02-15T17:02:42;36.28;;;19.00;;
53044;SDS011;38930;52.766;6.884;2023-02-15T17:05:47;35.72;;;17.95;;
53044;SDS011;38930;52.766;6.884;2023-02-15T17:10:40;40.53;;;18.33;;
53044;SDS011;38930;52.766;6.884;2023-02-15T17:13:28;36.00;;;18.92;;
53044;SDS011;38930;52.766;6.884;2023-02-15T17:16:20;39.83;;;19.58;;
53044;SDS011;38930;52.766;6.884;2023-02-15T17:18:51;36.28;;;19.02;;
53044;SDS011;38930;52.766;6.884;2023-02-15T17:21:20;35.72;;;20.02;;
53044;SDS011;38930;52.766;6.884;2023-02-15T17:23:51;40.40;;;20.63;;
53044;SDS011;38930;52.766;6.884;2023-02-15T17:26:45;41.67;;;21.23;;
53044;SDS011;38930;52.766;6.884;2023-02-15T17:29:35;41.20;;;19.70;;
53044;SDS011;38930;52.766;6.884;2023-02-15T17:32:11;38.33;;;19.63;;
53044;SDS011;38930;52.766;6.884;2023-02-15T17:35:00;38.72;;;19.75;;
53044;SDS011;38930;52.766;6.884;2023-02-15T17:37:48;38.63;;;21.23;;
53044;SDS011;38930;52.766;6.884;2023-02-15T17:40:17;44.65;;;21.17;;
53044;SDS011;38930;52.766;6.884;2023-02-15T17:42:53;40.80;;;20.65;;
53044;SDS011;38930;52.766;6.884;2023-02-15T17:45:20;40.60;;;21.08;;
53044;SDS011;38930;52.766;6.884;2023-02-15T17:47:47;42.35;;;20.85;;
53044;SDS011;38930;52.766;6.884;2023-02-15T17:52:45;43.03;;;22.63;;
53044;SDS011;38930;52.766;6.884;2023-02-15T17:55:15;39.92;;;20.33;;
53044;SDS011;38930;52.766;6.884;2023-02-15T17:58:01;38.67;;;21.10;;
53044;SDS011;38930;52.766;6.884;2023-02-15T18:00:29;38.35;;;21.25;;
53044;SDS011;38930;52.766;6.884;2023-02-15T18:03:14;43.47;;;20.95;;
53044;SDS011;38930;52.766;6.884;2023-02-15T18:05:59;42.72;;;21.77;;
53044;SDS011;38930;52.766;6.884;2023-02-15T18:08:43;40.78;;;21.77;;
53044;SDS011;38930;52.766;6.884;2023-02-15T18:11:28;40.42;;;21.23;;